createdAt,value
2023-05-21T00:02:20.979Z,74.31
2023-05-21T00:04:47.742Z,74.36
2023-05-21T00:07:15.443Z,74.13
2023-05-21T00:09:42.070Z,74.62
2023-05-21T00:12:09.342Z,74.44
2023-05-21T00:14:36.220Z,74.40
2023-05-21T00:17:03.157Z,74.62
2023-05-21T00:19:29.898Z,74.95
2023-05-21T00:21:57.674Z,74.75
2023-05-21T00:24:24.226Z,74.67
2023-05-21T00:26:51.009Z,75.16
2023-05-21T00:29:17.480Z,74.83
2023-05-21T00:31:44.040Z,74.49
2023-05-21T00:34:10.677Z,75.07
2023-05-21T00:36:37.258Z,75.12
2023-05-21T00:39:06.963Z,75.52
2023-05-21T00:41:35.354Z,75.73
2023-05-21T00:44:05.526Z,76.07
2023-05-21T00:46:32.469Z,75.66
2023-05-21T00:48:59.247Z,75.68
2023-05-21T00:51:30.182Z,76.33
2023-05-21T00:53:57.894Z,76.08
2023-05-21T00:56:27.164Z,76.86
2023-05-21T00:58:56.057Z,76.61
2023-05-21T01:01:27.478Z,77.14
2023-05-21T01:03:57.523Z,76.85
2023-05-21T01:06:24.074Z,76.49
2023-05-21T01:08:50.987Z,77.14
2023-05-21T01:11:18.937Z,77.55
2023-05-21T01:13:47.578Z,76.69
2023-05-21T01:16:14.266Z,78.01
2023-05-21T01:18:43.468Z,77.46
2023-05-21T01:21:10.375Z,77.65
2023-05-21T01:23:37.133Z,78.20
2023-05-21T01:26:03.662Z,78.00
2023-05-21T01:28:30.158Z,78.29
2023-05-21T01:30:59.670Z,78.67
2023-05-21T01:33:36.242Z,78.45
2023-05-21T01:36:13.928Z,79.11
2023-05-21T01:38:51.256Z,78.22
2023-05-21T01:41:19.891Z,78.38
2023-05-21T01:43:47.428Z,78.90
2023-05-21T01:46:19.882Z,78.83
2023-05-21T01:48:47.626Z,77.97
2023-05-21T01:51:14.774Z,79.11
2023-05-21T01:53:41.496Z,78.93
2023-05-21T01:56:08.377Z,78.32
2023-05-21T01:58:34.894Z,78.72
2023-05-21T02:01:02.796Z,78.00
2023-05-21T02:03:31.085Z,78.66
2023-05-21T02:05:57.927Z,79.57
2023-05-21T02:08:25.557Z,78.73
2023-05-21T02:10:52.214Z,78.72
2023-05-21T02:13:24.074Z,79.85
2023-05-21T02:15:54.777Z,80.10
2023-05-21T02:18:21.940Z,79.38
2023-05-21T02:20:48.464Z,80.26
2023-05-21T02:23:14.982Z,80.03
2023-05-21T02:25:41.572Z,80.45
2023-05-21T02:28:08.156Z,80.29
2023-05-21T02:30:35.254Z,80.74
2023-05-21T02:33:02.903Z,80.60
2023-05-21T02:35:29.620Z,80.80
2023-05-21T02:37:59.239Z,80.63
2023-05-21T02:40:26.117Z,81.19
2023-05-21T02:42:52.608Z,81.61
2023-05-21T02:45:19.157Z,80.94
2023-05-21T02:47:45.702Z,81.25
2023-05-21T02:50:14.143Z,81.66
2023-05-21T02:52:41.600Z,81.66
2023-05-21T02:55:08.688Z,81.99
2023-05-21T02:57:35.209Z,81.44
2023-05-21T03:00:01.763Z,81.92
2023-05-21T03:02:28.296Z,81.88
2023-05-21T03:04:55.629Z,82.19
2023-05-21T03:07:22.525Z,82.20
2023-05-21T03:09:49.174Z,81.99
2023-05-21T03:12:15.775Z,82.59
2023-05-21T03:14:44.217Z,82.77
2023-05-21T03:17:13.976Z,83.29
2023-05-21T03:19:41.891Z,83.58
2023-05-21T03:22:08.902Z,83.17
2023-05-21T03:24:36.897Z,83.57
2023-05-21T03:27:05.892Z,83.72
2023-05-21T03:29:32.777Z,84.04
2023-05-21T03:32:00.552Z,84.33
2023-05-21T03:34:27.156Z,83.65
2023-05-21T03:36:53.723Z,84.71
2023-05-21T03:39:20.364Z,84.51
2023-05-21T03:41:47.020Z,85.43
2023-05-21T03:44:13.600Z,84.88
2023-05-21T03:46:40.175Z,83.91
2023-05-21T03:49:06.794Z,84.87
2023-05-21T03:51:33.386Z,84.23
2023-05-21T03:54:00.259Z,84.40
2023-05-21T03:56:26.889Z,85.48
2023-05-21T03:58:53.755Z,84.84
2023-05-21T04:01:20.416Z,85.22
2023-05-21T04:03:47.199Z,84.49
2023-05-21T04:06:14.023Z,85.60
2023-05-21T04:08:40.583Z,85.67
2023-05-21T04:11:07.123Z,85.91
2023-05-21T04:13:33.681Z,86.15
2023-05-21T04:16:00.349Z,86.55
2023-05-21T04:18:26.968Z,86.14
2023-05-21T04:20:53.959Z,86.42
2023-05-21T04:23:23.745Z,86.35
2023-05-21T04:25:51.028Z,87.08
2023-05-21T04:28:21.045Z,87.63
2023-05-21T04:30:48.087Z,87.38
2023-05-21T04:33:18.071Z,87.29
2023-05-21T04:35:47.448Z,87.59
2023-05-21T04:38:14.139Z,86.75
2023-05-21T04:40:40.746Z,88.06
2023-05-21T04:43:08.122Z,87.88
2023-05-21T04:45:34.967Z,87.69
2023-05-21T04:48:02.789Z,87.19
2023-05-21T04:50:32.003Z,87.98
2023-05-21T04:52:59.614Z,88.15
2023-05-21T04:55:27.492Z,88.23
2023-05-21T04:57:54.069Z,88.30
2023-05-21T05:00:20.970Z,88.35
2023-05-21T05:02:47.601Z,88.66
2023-05-21T05:05:14.328Z,88.31
2023-05-21T05:07:41.038Z,88.98
2023-05-21T05:10:08.220Z,88.01
2023-05-21T05:12:34.760Z,88.62
2023-05-21T05:15:01.258Z,88.61
2023-05-21T05:17:27.855Z,89.32
2023-05-21T05:19:54.366Z,88.97
2023-05-21T05:22:20.926Z,89.36
2023-05-21T05:24:47.411Z,89.27
2023-05-21T05:27:13.960Z,88.97
2023-05-21T05:29:40.448Z,89.81
2023-05-21T05:32:07.574Z,88.72
2023-05-21T05:34:34.097Z,89.49
2023-05-21T05:37:02.714Z,89.52
2023-05-21T05:39:29.249Z,89.12
2023-05-21T05:41:55.819Z,89.10
2023-05-21T05:44:22.368Z,89.15
2023-05-21T05:46:48.838Z,89.75
2023-05-21T05:49:15.503Z,89.59
2023-05-21T05:51:42.166Z,89.10
2023-05-21T05:54:08.713Z,89.32
2023-05-21T05:56:35.218Z,88.96
2023-05-21T05:59:01.819Z,88.66
2023-05-21T06:01:28.320Z,89.41
2023-05-21T06:03:55.007Z,89.94
2023-05-21T06:06:21.638Z,89.85
2023-05-21T06:08:48.198Z,90.53
2023-05-21T06:11:17.242Z,89.76
2023-05-21T06:13:43.848Z,89.32
2023-05-21T06:16:10.407Z,88.26
2023-05-21T06:18:37.556Z,88.79
2023-05-21T06:21:04.068Z,87.77
2023-05-21T06:23:32.656Z,88.04
2023-05-21T06:25:59.288Z,87.78
2023-05-21T06:28:25.836Z,86.73
2023-05-21T06:30:52.396Z,87.22
2023-05-21T06:33:19.122Z,87.32
2023-05-21T06:35:45.815Z,86.22
2023-05-21T06:38:12.390Z,86.08
2023-05-21T06:40:38.903Z,86.15
2023-05-21T06:43:05.553Z,86.27
2023-05-21T06:45:32.146Z,85.72
2023-05-21T06:47:58.846Z,85.97
2023-05-21T06:50:25.457Z,85.65
2023-05-21T06:52:51.964Z,85.76
2023-05-21T06:55:18.476Z,86.06
2023-05-21T06:57:45.000Z,85.97
2023-05-21T07:00:12.317Z,86.40
2023-05-21T07:02:38.959Z,85.60
2023-05-21T07:05:05.942Z,85.60
2023-05-21T07:07:34.805Z,85.00
2023-05-21T07:10:01.472Z,84.58
2023-05-21T07:12:27.948Z,85.54
2023-05-21T07:14:54.455Z,86.08
2023-05-21T07:17:20.996Z,85.36
2023-05-21T07:19:47.513Z,84.73
2023-05-21T07:22:14.513Z,84.49
2023-05-21T07:24:41.036Z,83.02
2023-05-21T07:27:17.755Z,83.60
2023-05-21T07:29:51.036Z,84.24
2023-05-21T07:32:17.612Z,83.41
2023-05-21T07:34:44.151Z,82.22
2023-05-21T07:37:10.747Z,82.45
2023-05-21T07:39:37.822Z,82.66
2023-05-21T07:42:04.482Z,82.56
2023-05-21T07:44:31.922Z,83.28
2023-05-21T07:46:58.514Z,82.95
2023-05-21T07:49:25.136Z,81.94
2023-05-21T07:51:51.702Z,81.86
2023-05-21T07:54:19.616Z,80.50
2023-05-21T07:56:46.199Z,81.07
2023-05-21T07:59:14.875Z,80.78
2023-05-21T08:01:41.967Z,81.28
2023-05-21T08:04:08.880Z,80.63
2023-05-21T08:06:37.543Z,80.77
2023-05-21T08:09:06.078Z,80.55
2023-05-21T08:11:33.107Z,80.52
2023-05-21T08:14:00.337Z,79.68
2023-05-21T08:16:27.042Z,80.35
2023-05-21T08:18:53.639Z,79.92
2023-05-21T08:21:20.243Z,80.88
2023-05-21T08:23:46.843Z,80.54
2023-05-21T08:26:16.308Z,79.89
2023-05-21T08:28:43.006Z,80.39
2023-05-21T08:31:09.542Z,78.78
2023-05-21T08:33:38.990Z,79.27
2023-05-21T08:36:06.733Z,78.27
2023-05-21T08:38:34.014Z,80.21
2023-05-21T08:41:00.762Z,79.07
2023-05-21T08:43:28.397Z,79.63
2023-05-21T08:45:59.070Z,79.87
2023-05-21T08:48:25.876Z,78.07
2023-05-21T08:50:54.699Z,78.67
2023-05-21T08:53:28.013Z,78.26
2023-05-21T08:55:56.260Z,77.32
2023-05-21T08:58:23.204Z,77.12
2023-05-21T09:00:49.756Z,76.83
2023-05-21T09:03:16.954Z,77.71
2023-05-21T09:05:45.184Z,74.87
2023-05-21T09:08:34.517Z,75.68
2023-05-21T09:11:02.216Z,75.73
2023-05-21T09:13:31.514Z,73.60
2023-05-21T09:15:58.833Z,75.24
2023-05-21T09:18:27.573Z,72.84
2023-05-21T09:20:54.164Z,74.29
2023-05-21T09:23:20.691Z,75.38
2023-05-21T09:25:48.961Z,72.92
2023-05-21T09:28:16.979Z,73.77
2023-05-21T09:30:53.583Z,74.04
2023-05-21T09:33:27.638Z,75.08
2023-05-21T09:35:54.197Z,73.98
2023-05-21T09:38:24.688Z,73.18
2023-05-21T09:40:51.276Z,73.56
2023-05-21T09:43:18.168Z,73.70
2023-05-21T09:45:55.353Z,72.81
2023-05-21T09:48:44.064Z,73.37
2023-05-21T09:51:18.420Z,71.58
2023-05-21T09:53:52.338Z,72.31
2023-05-21T09:56:26.770Z,71.91
2023-05-21T09:59:00.198Z,70.58
2023-05-21T10:01:27.541Z,71.01
2023-05-21T10:03:56.902Z,72.52
2023-05-21T10:06:29.010Z,69.46
2023-05-21T10:08:56.947Z,69.57
2023-05-21T10:11:29.779Z,72.00
2023-05-21T10:14:14.730Z,72.23
2023-05-21T10:16:42.860Z,70.91
2023-05-21T10:19:13.116Z,69.37
2023-05-21T10:21:40.974Z,70.41
2023-05-21T10:24:11.045Z,70.13
2023-05-21T10:26:38.462Z,70.17
2023-05-21T10:29:05.071Z,70.43
2023-05-21T10:31:33.205Z,69.78
2023-05-21T10:34:00.601Z,68.78
2023-05-21T10:36:33.524Z,68.54
2023-05-21T10:39:00.587Z,68.98
2023-05-21T10:41:28.189Z,68.44
2023-05-21T10:44:06.443Z,69.04
2023-05-21T10:47:04.088Z,67.89
2023-05-21T10:49:48.066Z,68.02
2023-05-21T10:52:39.634Z,68.10
2023-05-21T10:55:27.726Z,68.41
2023-05-21T10:58:31.870Z,69.92
2023-05-21T11:00:59.978Z,69.54
2023-05-21T11:03:27.480Z,70.25
2023-05-21T11:05:56.299Z,68.74
2023-05-21T11:08:31.776Z,69.00
2023-05-21T11:10:59.045Z,70.69
2023-05-21T11:13:27.228Z,67.46
2023-05-21T11:16:00.153Z,68.92
2023-05-21T11:18:35.664Z,68.78
2023-05-21T11:21:06.384Z,69.80
2023-05-21T11:23:51.389Z,68.32
2023-05-21T11:26:26.927Z,69.14
2023-05-21T11:29:11.863Z,67.92
2023-05-21T11:31:38.756Z,66.26
2023-05-21T11:34:12.505Z,67.58
2023-05-21T11:36:40.080Z,65.07
2023-05-21T11:39:23.911Z,65.94
2023-05-21T11:42:04.312Z,64.67
2023-05-21T11:44:48.469Z,65.80
2023-05-21T11:47:19.502Z,65.83
2023-05-21T11:49:46.671Z,66.14
2023-05-21T11:52:14.244Z,65.61
2023-05-21T11:54:48.558Z,66.51
2023-05-21T11:57:21.802Z,65.47
2023-05-21T11:59:51.484Z,65.05
2023-05-21T12:02:20.140Z,65.58
2023-05-21T12:04:48.959Z,64.12
2023-05-21T12:07:17.311Z,66.21
2023-05-21T12:09:48.797Z,65.44
2023-05-21T12:12:17.216Z,65.52
2023-05-21T12:14:49.016Z,64.03
2023-05-21T12:17:18.070Z,62.72
2023-05-21T12:19:47.576Z,64.19
2023-05-21T12:22:16.558Z,63.93
2023-05-21T12:24:44.553Z,62.89
2023-05-21T12:27:13.264Z,63.51
2023-05-21T12:29:42.469Z,63.28
2023-05-21T12:32:12.499Z,63.72
2023-05-21T12:34:50.474Z,64.04
2023-05-21T12:37:22.229Z,63.65
2023-05-21T12:39:53.128Z,63.69
2023-05-21T12:42:30.602Z,65.62
2023-05-21T12:44:58.095Z,64.38
2023-05-21T12:47:28.945Z,64.86
2023-05-21T12:49:58.725Z,64.69
2023-05-21T12:52:27.205Z,64.51
2023-05-21T12:54:57.670Z,61.75
2023-05-21T12:57:43.947Z,63.17
2023-05-21T13:00:11.276Z,64.43
2023-05-21T13:02:42.856Z,64.12
2023-05-21T13:05:17.074Z,62.75
2023-05-21T13:07:46.668Z,64.02
2023-05-21T13:10:13.907Z,64.37
2023-05-21T13:12:42.221Z,64.14
2023-05-21T13:15:10.789Z,64.02
2023-05-21T13:17:37.333Z,64.55
2023-05-21T13:20:13.667Z,62.91
2023-05-21T13:22:42.711Z,61.92
2023-05-21T13:25:11.437Z,61.16
2023-05-21T13:27:39.302Z,63.16
2023-05-21T13:30:07.042Z,63.89
2023-05-21T13:32:33.945Z,62.92
2023-05-21T13:35:00.618Z,61.49
2023-05-21T13:37:27.163Z,62.13
2023-05-21T13:39:53.688Z,62.27
2023-05-21T13:42:21.137Z,61.51
2023-05-21T13:44:48.088Z,63.28
2023-05-21T13:47:14.729Z,62.09
2023-05-21T13:49:41.387Z,60.54
2023-05-21T13:52:08.920Z,60.17
2023-05-21T13:54:36.222Z,60.27
2023-05-21T13:57:03.485Z,61.21
2023-05-21T13:59:32.634Z,60.88
2023-05-21T14:02:00.272Z,59.45
2023-05-21T14:04:26.839Z,59.50
2023-05-21T14:06:53.537Z,59.63
2023-05-21T14:09:20.359Z,59.98
2023-05-21T14:11:47.084Z,60.06
2023-05-21T14:14:18.778Z,60.51
2023-05-21T14:16:47.187Z,58.77
2023-05-21T14:19:14.028Z,59.64
2023-05-21T14:21:41.076Z,58.45
2023-05-21T14:24:07.741Z,59.03
2023-05-21T14:26:36.667Z,58.37
2023-05-21T14:29:05.062Z,59.77
2023-05-21T14:31:31.668Z,58.78
2023-05-21T14:33:58.202Z,61.39
2023-05-21T14:36:24.744Z,59.49
2023-05-21T14:38:51.335Z,58.74
2023-05-21T14:41:17.815Z,59.56
2023-05-21T14:43:45.467Z,59.78
2023-05-21T14:46:12.083Z,59.07
2023-05-21T14:48:38.658Z,58.74
2023-05-21T14:51:05.223Z,59.16
2023-05-21T14:53:32.272Z,57.13
2023-05-21T14:55:58.893Z,59.17
2023-05-21T14:58:25.354Z,59.37
2023-05-21T15:00:51.842Z,58.96
2023-05-21T15:03:18.466Z,58.49
2023-05-21T15:05:44.997Z,59.85
2023-05-21T15:08:11.495Z,59.59
2023-05-21T15:10:38.257Z,57.76
2023-05-21T15:13:04.812Z,58.32
2023-05-21T15:15:31.392Z,58.60
2023-05-21T15:17:58.099Z,58.07
2023-05-21T15:20:24.713Z,57.44
2023-05-21T15:22:53.488Z,58.35
2023-05-21T15:25:23.624Z,58.00
2023-05-21T15:27:50.697Z,60.36
2023-05-21T15:30:17.428Z,58.50
2023-05-21T15:32:44.121Z,59.35
2023-05-21T15:35:10.691Z,58.82
2023-05-21T15:37:37.339Z,58.62
2023-05-21T15:40:04.572Z,59.08
2023-05-21T15:42:31.876Z,58.22
2023-05-21T15:44:58.585Z,59.78
2023-05-21T15:47:25.190Z,58.29
2023-05-21T15:49:52.966Z,58.37
2023-05-21T15:52:20.017Z,59.15
2023-05-21T15:54:47.073Z,59.29
2023-05-21T15:57:13.636Z,60.08
2023-05-21T15:59:40.199Z,59.18
2023-05-21T16:02:07.963Z,59.83
2023-05-21T16:04:34.783Z,60.68
2023-05-21T16:07:01.409Z,60.60
2023-05-21T16:09:27.928Z,61.22
2023-05-21T16:11:54.532Z,62.19
2023-05-21T16:14:21.024Z,64.20
2023-05-21T16:16:47.578Z,64.60
2023-05-21T16:19:14.185Z,64.25
2023-05-21T16:21:41.549Z,66.21
2023-05-21T16:24:08.105Z,66.71
2023-05-21T16:26:34.586Z,66.07
2023-05-21T16:29:02.266Z,66.58
2023-05-21T16:31:29.075Z,67.32
2023-05-21T16:33:55.881Z,67.20
2023-05-21T16:36:22.440Z,67.79
2023-05-21T16:38:48.921Z,67.99
2023-05-21T16:41:15.629Z,67.86
2023-05-21T16:43:42.155Z,69.28
2023-05-21T16:46:08.763Z,68.53
2023-05-21T16:48:37.372Z,69.70
2023-05-21T16:51:04.650Z,69.08
2023-05-21T16:53:31.378Z,70.95
2023-05-21T16:55:57.948Z,71.30
2023-05-21T16:58:24.548Z,70.42
2023-05-21T17:00:51.094Z,71.84
2023-05-21T17:03:18.153Z,70.42
2023-05-21T17:05:44.760Z,70.77
2023-05-21T17:08:11.364Z,71.45
2023-05-21T17:10:37.893Z,71.58
2023-05-21T17:13:17.737Z,72.41
2023-05-21T17:15:48.555Z,72.28
2023-05-21T17:18:15.323Z,72.77
2023-05-21T17:20:43.666Z,72.96
2023-05-21T17:23:11.030Z,72.15
2023-05-21T17:25:37.892Z,73.36
2023-05-21T17:28:04.876Z,73.61
2023-05-21T17:30:31.413Z,73.63
2023-05-21T17:32:58.384Z,75.06
2023-05-21T17:35:25.110Z,74.70
2023-05-21T17:37:53.272Z,74.95
2023-05-21T17:40:21.360Z,75.21
2023-05-21T17:42:48.034Z,75.06
2023-05-21T17:45:14.623Z,75.26
2023-05-21T17:47:41.180Z,75.03
2023-05-21T17:50:08.609Z,75.68
2023-05-21T17:52:35.092Z,75.84
2023-05-21T17:55:01.889Z,76.55
2023-05-21T17:57:28.611Z,76.51
2023-05-21T17:59:55.586Z,77.08
2023-05-21T18:02:23.513Z,76.84
2023-05-21T18:04:50.090Z,77.18
2023-05-21T18:07:16.753Z,77.53
2023-05-21T18:09:43.268Z,77.41
2023-05-21T18:12:09.803Z,78.24
2023-05-21T18:14:36.442Z,77.77
2023-05-21T18:17:03.053Z,78.08
2023-05-21T18:19:31.781Z,78.88
2023-05-21T18:21:58.365Z,79.00
2023-05-21T18:24:25.655Z,78.81
2023-05-21T18:26:52.195Z,78.88
2023-05-21T18:29:18.769Z,79.76
2023-05-21T18:31:45.505Z,80.03
2023-05-21T18:34:13.042Z,79.76
2023-05-21T18:36:40.172Z,79.83
2023-05-21T18:39:07.954Z,81.11
2023-05-21T18:41:34.663Z,80.10
2023-05-21T18:44:01.913Z,80.70
2023-05-21T18:46:28.999Z,80.38
2023-05-21T18:48:56.373Z,80.68
2023-05-21T18:51:22.950Z,80.91
2023-05-21T18:53:49.553Z,81.30
2023-05-21T18:56:17.084Z,81.46
2023-05-21T18:58:43.595Z,81.60
2023-05-21T19:01:10.453Z,82.29
2023-05-21T19:03:38.062Z,82.62
2023-05-21T19:06:04.743Z,82.38
2023-05-21T19:08:31.257Z,83.09
2023-05-21T19:10:57.835Z,83.50
2023-05-21T19:13:24.465Z,83.36
2023-05-21T19:15:51.265Z,83.44
2023-05-21T19:18:17.860Z,84.07
2023-05-21T19:20:44.385Z,84.62
2023-05-21T19:23:10.940Z,84.61
2023-05-21T19:25:38.298Z,84.83
2023-05-21T19:28:05.008Z,85.80
2023-05-21T19:30:33.546Z,86.14
2023-05-21T19:33:00.246Z,86.32
2023-05-21T19:35:26.781Z,86.78
2023-05-21T19:37:54.800Z,86.67
2023-05-21T19:40:23.107Z,87.31
2023-05-21T19:42:49.641Z,87.98
2023-05-21T19:45:16.174Z,87.59
2023-05-21T19:47:43.337Z,88.67
2023-05-21T19:50:10.904Z,88.76
2023-05-21T19:52:38.699Z,88.77
2023-05-21T19:55:08.563Z,89.56
2023-05-21T19:57:35.067Z,89.03
2023-05-21T20:00:01.663Z,89.93
2023-05-21T20:02:31.480Z,90.03
2023-05-21T20:04:59.027Z,90.02
2023-05-21T20:07:25.812Z,90.88
2023-05-21T20:09:52.462Z,90.99
2023-05-21T20:12:19.290Z,91.05
2023-05-21T20:14:46.891Z,91.51
2023-05-21T20:17:14.395Z,91.98
2023-05-21T20:19:41.103Z,92.29
2023-05-21T20:22:07.683Z,92.79
2023-05-21T20:24:34.258Z,93.00
2023-05-21T20:27:01.683Z,93.03
2023-05-21T20:29:29.110Z,92.69
2023-05-21T20:31:55.640Z,93.44
2023-05-21T20:34:22.221Z,94.16
2023-05-21T20:36:49.290Z,93.81
2023-05-21T20:39:15.984Z,94.38
2023-05-21T20:41:44.547Z,94.63
2023-05-21T20:44:11.921Z,94.93
2023-05-21T20:46:39.008Z,95.20
2023-05-21T20:49:06.226Z,95.53
2023-05-21T20:51:33.286Z,95.56
2023-05-21T20:53:59.830Z,95.81
2023-05-21T20:56:40.732Z,95.62
2023-05-21T20:59:10.464Z,95.95
2023-05-21T21:01:37.958Z,96.33
2023-05-21T21:04:05.050Z,97.08
2023-05-21T21:06:31.927Z,96.97
2023-05-21T21:08:58.766Z,97.36
2023-05-21T21:11:26.643Z,97.34
2023-05-21T21:13:53.167Z,97.78
2023-05-21T21:16:19.766Z,98.08
2023-05-21T21:18:47.023Z,98.61
2023-05-21T21:21:13.897Z,98.63
2023-05-21T21:23:40.546Z,98.74
2023-05-21T21:26:07.191Z,98.97
2023-05-21T21:28:33.945Z,99.10
2023-05-21T21:31:00.689Z,99.67
2023-05-21T21:33:28.400Z,99.70
2023-05-21T21:35:55.177Z,99.98
2023-05-21T21:38:21.779Z,100.00
2023-05-21T21:40:48.422Z,100.00
2023-05-21T21:43:15.015Z,100.00
2023-05-21T21:45:41.645Z,100.00
2023-05-21T21:48:08.297Z,100.00
2023-05-21T21:50:34.892Z,100.00
2023-05-21T21:53:03.567Z,100.00
2023-05-21T21:55:30.315Z,100.00
2023-05-21T21:57:56.928Z,100.00
2023-05-21T22:00:26.599Z,100.00
2023-05-21T22:02:53.930Z,100.00
2023-05-21T22:05:20.935Z,100.00
2023-05-21T22:07:47.851Z,100.00
2023-05-21T22:10:18.117Z,100.00
2023-05-21T22:12:45.948Z,100.00
2023-05-21T22:15:19.740Z,100.00
2023-05-21T22:17:48.349Z,100.00
2023-05-21T22:20:15.109Z,100.00
2023-05-21T22:22:41.621Z,100.00
2023-05-21T22:25:08.531Z,100.00
2023-05-21T22:27:35.026Z,100.00
2023-05-21T22:30:01.626Z,100.00
2023-05-21T22:32:28.110Z,100.00
2023-05-21T22:34:54.655Z,100.00
2023-05-21T22:37:21.266Z,100.00
2023-05-21T22:39:47.789Z,100.00
2023-05-21T22:42:14.474Z,100.00
2023-05-21T22:44:41.006Z,100.00
2023-05-21T22:47:09.460Z,100.00
2023-05-21T22:49:38.072Z,100.00
2023-05-21T22:52:06.233Z,100.00
2023-05-21T22:54:33.029Z,100.00
2023-05-21T22:57:01.176Z,100.00
2023-05-21T22:59:32.267Z,100.00
2023-05-21T23:01:59.183Z,100.00
2023-05-21T23:04:42.745Z,100.00
2023-05-21T23:07:10.546Z,100.00
2023-05-21T23:09:37.075Z,100.00
2023-05-21T23:12:04.062Z,100.00
2023-05-21T23:14:30.791Z,100.00
2023-05-21T23:17:02.048Z,100.00
2023-05-21T23:19:29.399Z,100.00
2023-05-21T23:21:56.366Z,100.00
2023-05-21T23:24:23.144Z,100.00
2023-05-21T23:26:49.826Z,100.00
2023-05-21T23:29:16.614Z,100.00
2023-05-21T23:31:43.597Z,100.00
2023-05-21T23:34:10.291Z,100.00
2023-05-21T23:36:36.798Z,100.00
2023-05-21T23:39:03.546Z,100.00
2023-05-21T23:41:30.143Z,100.00
2023-05-21T23:43:56.659Z,100.00
2023-05-21T23:46:23.293Z,100.00
2023-05-21T23:48:49.931Z,100.00
2023-05-21T23:51:18.258Z,100.00
2023-05-21T23:53:45.161Z,100.00
2023-05-21T23:56:11.621Z,100.00
2023-05-21T23:58:38.114Z,100.00
